KMRF/MRF METAR and TAF weather

Enter ICAO airport designator
Station Type Date Time Source
KMRF METAR 2021/09/23 17:56 UTC NOAA

KMRF 231756Z AUTO 21008KT 10SM CLR 26/06 A3022 RMK AO2 SLP188 T02560061 10256 20067 58010


Station Type Date Time Source
KMRF Decoded METAR 2021/09/23 17:56 UTC NOAA

Marfa, TX, United States (KMRF) 30-22N 104-01W 1481M
Sep 23, 2021 - 01:56 PM EDT / 2021.09.23 1756 UTC
Wind: from the SSW (210 degrees) at 9 MPH (8 KT):0
Visibility: 10 mile(s):0
Sky conditions: clear
Temperature: 78.1 F (25.6 C)
Dew Point: 43.0 F (6.1 C)
Relative Humidity: 28%
Pressure (altimeter): 30.22 in. Hg (1023 hPa)
Pressure tendency: 0.03 inches (1.0 hPa) lower than three hours ago
ob: KMRF 231756Z AUTO 21008KT 10SM CLR 26/06 A3022 RMK AO2 SLP188 T02560061 10256 20067 58010
cycle: 18

Station Type Date Time Source
KMRF TAF UTC NOAA

Error!

Example: see airport list